createdAt,value
2023-04-27T00:02:11.971Z,96235.13
2023-04-27T00:04:39.135Z,96243.00
2023-04-27T00:07:08.551Z,96239.13
2023-04-27T00:09:38.487Z,96238.19
2023-04-27T00:12:11.109Z,96236.59
2023-04-27T00:14:37.940Z,96243.00
2023-04-27T00:17:07.458Z,96232.44
2023-04-27T00:19:35.003Z,96233.38
2023-04-27T00:22:06.055Z,96235.47
2023-04-27T00:24:34.954Z,96232.25
2023-04-27T00:27:03.394Z,96229.84
2023-04-27T00:29:33.572Z,96223.59
2023-04-27T00:32:03.622Z,96227.13
2023-04-27T00:34:31.239Z,96224.06
2023-04-27T00:36:58.259Z,96220.72
2023-04-27T00:39:25.509Z,96218.63
2023-04-27T00:41:52.747Z,96214.16
2023-04-27T00:44:28.305Z,96220.06
2023-04-27T00:46:56.440Z,96212.06
2023-04-27T00:49:24.198Z,96218.28
2023-04-27T00:51:50.974Z,96211.88
2023-04-27T00:54:23.976Z,96214.31
2023-04-27T00:56:52.225Z,96224.06
2023-04-27T00:59:23.342Z,96207.25
2023-04-27T01:01:52.629Z,96216.22
2023-04-27T01:04:20.147Z,96212.84
2023-04-27T01:06:47.725Z,96206.59
2023-04-27T01:09:14.890Z,96214.59
2023-04-27T01:11:41.779Z,96216.88
2023-04-27T01:14:08.517Z,96217.97
2023-04-27T01:16:35.867Z,96219.59
2023-04-27T01:19:02.667Z,96216.06
2023-04-27T01:21:29.432Z,96221.38
2023-04-27T01:24:01.613Z,96224.25
2023-04-27T01:26:29.201Z,96214.63
2023-04-27T01:28:56.968Z,96219.09
2023-04-27T01:31:31.564Z,96216.38
2023-04-27T01:33:58.897Z,96215.59
2023-04-27T01:36:25.706Z,96209.81
2023-04-27T01:38:55.947Z,96213.81
2023-04-27T01:41:25.068Z,96202.09
2023-04-27T01:43:52.170Z,96208.53
2023-04-27T01:46:19.702Z,96212.22
2023-04-27T01:48:47.152Z,96204.50
2023-04-27T01:51:15.394Z,96210.63
2023-04-27T01:53:47.403Z,96208.53
2023-04-27T01:56:17.074Z,96209.66
2023-04-27T01:58:44.419Z,96220.38
2023-04-27T02:01:12.745Z,96224.25
2023-04-27T02:03:40.215Z,96221.84
2023-04-27T02:06:12.666Z,96228.09
2023-04-27T02:08:39.871Z,96223.09
2023-04-27T02:11:09.279Z,96226.81
2023-04-27T02:13:36.192Z,96222.94
2023-04-27T02:16:05.385Z,96220.06
2023-04-27T02:18:35.329Z,96226.97
2023-04-27T02:21:12.978Z,96230.00
2023-04-27T02:23:41.058Z,96224.09
2023-04-27T02:26:08.497Z,96233.38
2023-04-27T02:28:39.651Z,96225.22
2023-04-27T02:33:50.338Z,96234.19
2023-04-27T02:36:17.565Z,96228.88
2023-04-27T02:38:45.078Z,96230.81
2023-04-27T02:41:13.156Z,96232.41
2023-04-27T02:43:43.642Z,96232.75
2023-04-27T02:46:10.588Z,96233.53
2023-04-27T02:48:40.909Z,96235.81
2023-04-27T02:51:07.732Z,96235.63
2023-04-27T02:53:34.595Z,96239.31
2023-04-27T02:56:01.669Z,96233.22
2023-04-27T02:58:28.667Z,96232.09
2023-04-27T03:00:56.346Z,96232.09
2023-04-27T03:03:24.218Z,96234.34
2023-04-27T03:05:51.174Z,96237.06
2023-04-27T03:08:20.211Z,96233.53
2023-04-27T03:10:50.375Z,96235.31
2023-04-27T03:13:20.661Z,96222.00
2023-04-27T03:15:47.671Z,96219.91
2023-04-27T03:18:17.883Z,96222.66
2023-04-27T03:20:45.578Z,96220.06
2023-04-27T03:23:14.854Z,96216.53
2023-04-27T03:25:42.079Z,96241.88
2023-04-27T03:28:09.383Z,96234.66
2023-04-27T03:30:36.656Z,96243.81
2023-04-27T03:33:03.910Z,96243.16
2023-04-27T03:35:30.753Z,96250.69
2023-04-27T03:37:57.381Z,96251.50
2023-04-27T03:40:24.185Z,96260.94
2023-04-27T03:42:50.902Z,96253.25
2023-04-27T03:45:19.243Z,96239.47
2023-04-27T03:47:46.075Z,96248.47
2023-04-27T03:50:14.367Z,96240.44
2023-04-27T03:52:44.799Z,96240.28
2023-04-27T03:55:11.989Z,96236.91
2023-04-27T03:57:41.778Z,96236.25
2023-04-27T04:00:12.452Z,96240.75
2023-04-27T04:02:43.419Z,96233.72
2023-04-27T04:05:19.567Z,96234.50
2023-04-27T04:07:49.932Z,96238.34
2023-04-27T04:10:18.123Z,96250.84
2023-04-27T04:12:47.637Z,96246.50
2023-04-27T04:15:20.774Z,96256.28
2023-04-27T04:17:50.060Z,96264.94
2023-04-27T04:20:22.248Z,96258.53
2023-04-27T04:22:49.178Z,96251.31
2023-04-27T04:25:16.586Z,96263.50
2023-04-27T04:27:45.714Z,96268.63
2023-04-27T04:30:13.483Z,96267.53
2023-04-27T04:32:41.117Z,96280.19
2023-04-27T04:35:08.834Z,96277.28
2023-04-27T04:37:36.873Z,96282.13
2023-04-27T04:40:11.115Z,96277.47
2023-04-27T04:42:39.279Z,96283.59
2023-04-27T04:45:08.596Z,96289.50
2023-04-27T04:47:36.914Z,96290.63
2023-04-27T04:50:04.228Z,96290.78
2023-04-27T04:52:32.846Z,96284.53
2023-04-27T04:55:03.089Z,96287.75
2023-04-27T04:57:33.630Z,96290.47
2023-04-27T05:00:02.054Z,96301.69
2023-04-27T05:02:29.353Z,96297.22
2023-04-27T05:05:01.395Z,96298.31
2023-04-27T05:07:28.386Z,96316.31
2023-04-27T05:09:58.033Z,96311.63
2023-04-27T05:12:31.104Z,96300.06
2023-04-27T05:14:58.680Z,96306.63
2023-04-27T05:17:27.368Z,96314.97
2023-04-27T05:19:58.583Z,96323.16
2023-04-27T05:22:27.236Z,96325.69
2023-04-27T05:24:54.174Z,96329.25
2023-04-27T05:27:21.798Z,96321.66
2023-04-27T05:29:50.830Z,96332.81
2023-04-27T05:32:19.509Z,96340.47
2023-04-27T05:34:49.286Z,96337.72
2023-04-27T05:37:16.347Z,96337.88
2023-04-27T05:39:43.031Z,96341.41
2023-04-27T05:42:09.769Z,96337.31
2023-04-27T05:44:36.760Z,96332.00
2023-04-27T05:47:03.471Z,96348.81
2023-04-27T05:49:30.704Z,96337.84
2023-04-27T05:51:59.441Z,96339.56
2023-04-27T05:54:27.647Z,96338.47
2023-04-27T05:56:54.563Z,96339.81
2023-04-27T05:59:22.084Z,96342.00
2023-04-27T06:01:49.238Z,96341.91
2023-04-27T06:04:16.523Z,96335.88
2023-04-27T06:06:44.863Z,96350.44
2023-04-27T06:09:11.752Z,96346.69
2023-04-27T06:11:38.655Z,96345.25
2023-04-27T06:14:05.416Z,96339.75
2023-04-27T06:16:32.210Z,96343.28
2023-04-27T06:18:59.062Z,96345.91
2023-04-27T06:21:26.550Z,96343.09
2023-04-27T06:23:53.234Z,96344.31
2023-04-27T06:26:19.905Z,96346.69
2023-04-27T06:28:46.915Z,96342.13
2023-04-27T06:31:14.126Z,96341.25
2023-04-27T06:33:41.380Z,96348.88
2023-04-27T06:36:08.368Z,96350.34
2023-04-27T06:38:35.229Z,96348.97
2023-04-27T06:41:03.074Z,96354.22
2023-04-27T06:43:30.360Z,96363.47
2023-04-27T06:45:57.580Z,96357.78
2023-04-27T06:48:24.411Z,96364.28
2023-04-27T06:50:52.070Z,96353.09
2023-04-27T06:53:18.759Z,96361.31
2023-04-27T06:55:47.578Z,96361.22
2023-04-27T06:58:15.261Z,96358.44
2023-04-27T07:00:42.065Z,96355.22
2023-04-27T07:03:08.931Z,96364.09
2023-04-27T07:05:35.740Z,96354.59
2023-04-27T07:08:05.354Z,96350.03
2023-04-27T07:10:33.900Z,96356.38
2023-04-27T07:13:01.321Z,96346.41
2023-04-27T07:15:28.065Z,96358.16
2023-04-27T07:17:54.811Z,96361.28
2023-04-27T07:20:21.581Z,96363.75
2023-04-27T07:22:48.278Z,96360.25
2023-04-27T07:25:15.097Z,96359.97
2023-04-27T07:27:41.805Z,96369.47
2023-04-27T07:30:10.080Z,96371.72
2023-04-27T07:32:39.274Z,96372.06
2023-04-27T07:35:06.425Z,96367.00
2023-04-27T07:37:33.647Z,96362.31
2023-04-27T07:40:00.360Z,96361.91
2023-04-27T07:42:27.059Z,96360.25
2023-04-27T07:44:54.312Z,96355.16
2023-04-27T07:47:21.857Z,96363.44
2023-04-27T07:49:48.682Z,96359.59
2023-04-27T07:52:15.900Z,96369.84
2023-04-27T07:54:42.742Z,96361.03
2023-04-27T07:57:13.434Z,96369.00
2023-04-27T07:59:40.335Z,96362.28
2023-04-27T08:02:19.178Z,96362.00
2023-04-27T08:04:47.939Z,96371.25
2023-04-27T08:07:17.332Z,96370.56
2023-04-27T08:09:44.457Z,96373.06
2023-04-27T08:12:11.097Z,96369.38
2023-04-27T08:14:37.783Z,96372.47
2023-04-27T08:17:04.577Z,96370.28
2023-04-27T08:19:31.409Z,96371.56
2023-04-27T08:21:58.153Z,96378.00
2023-04-27T08:24:24.830Z,96377.75
2023-04-27T08:26:51.656Z,96379.06
2023-04-27T08:29:27.212Z,96382.81
2023-04-27T08:31:58.307Z,96383.91
2023-04-27T08:34:25.886Z,96389.72
2023-04-27T08:36:53.202Z,96398.38
2023-04-27T08:39:20.730Z,96390.47
2023-04-27T08:41:47.472Z,96391.06
2023-04-27T08:44:14.321Z,96386.88
2023-04-27T08:46:41.332Z,96387.16
2023-04-27T08:49:08.669Z,96386.63
2023-04-27T08:51:35.697Z,96381.44
2023-04-27T08:54:02.899Z,96377.75
2023-04-27T08:56:30.736Z,96381.34
2023-04-27T08:58:58.950Z,96386.00
2023-04-27T09:01:27.596Z,96383.25
2023-04-27T09:04:07.730Z,96387.75
2023-04-27T09:06:35.847Z,96380.56
2023-04-27T09:09:04.119Z,96376.34
2023-04-27T09:11:35.037Z,96382.78
2023-04-27T09:14:04.022Z,96383.91
2023-04-27T09:16:31.434Z,96384.13
2023-04-27T09:18:58.819Z,96387.94
2023-04-27T09:21:27.949Z,96379.94
2023-04-27T09:23:57.634Z,96387.91
2023-04-27T09:26:27.651Z,96380.88
2023-04-27T09:28:58.489Z,96380.94
2023-04-27T09:31:36.065Z,96382.88
2023-04-27T09:34:04.009Z,96384.16
2023-04-27T09:36:32.494Z,96381.88
2023-04-27T09:39:02.317Z,96379.00
2023-04-27T09:41:29.681Z,96378.16
2023-04-27T09:43:58.079Z,96377.81
2023-04-27T09:46:26.066Z,96382.28
2023-04-27T09:48:53.456Z,96369.50
2023-04-27T09:51:20.208Z,96374.19
2023-04-27T09:53:51.612Z,96369.41
2023-04-27T09:56:26.266Z,96368.69
2023-04-27T09:59:03.771Z,96365.72
2023-04-27T10:01:45.770Z,96373.81
2023-04-27T10:04:27.850Z,96376.19
2023-04-27T10:06:58.230Z,96363.28
2023-04-27T10:09:25.475Z,96358.09
2023-04-27T10:11:54.543Z,96361.03
2023-04-27T10:14:22.837Z,96361.38
2023-04-27T10:16:55.031Z,96356.28
2023-04-27T10:19:23.571Z,96358.91
2023-04-27T10:22:07.771Z,96347.84
2023-04-27T10:24:36.982Z,96355.78
2023-04-27T10:27:05.990Z,96357.47
2023-04-27T10:29:41.887Z,96358.63
2023-04-27T10:32:12.530Z,96359.72
2023-04-27T10:34:40.047Z,96346.75
2023-04-27T10:37:11.954Z,96358.03
2023-04-27T10:39:49.381Z,96359.16
2023-04-27T10:42:28.830Z,96348.72
2023-04-27T10:44:59.398Z,96347.75
2023-04-27T10:47:42.510Z,96347.16
2023-04-27T10:50:14.330Z,96348.41
2023-04-27T10:52:44.545Z,96339.41
2023-04-27T10:55:16.139Z,96339.09
2023-04-27T10:57:51.098Z,96336.22
2023-04-27T11:00:47.006Z,96334.75
2023-04-27T11:03:15.913Z,96331.13
2023-04-27T11:05:45.153Z,96323.84
2023-04-27T11:08:14.269Z,96320.97
2023-04-27T11:10:50.228Z,96319.81
2023-04-27T11:13:22.994Z,96318.84
2023-04-27T11:15:55.319Z,96315.84
2023-04-27T11:18:24.904Z,96316.50
2023-04-27T11:20:54.223Z,96313.91
2023-04-27T11:23:25.449Z,96314.81
2023-04-27T11:25:52.701Z,96318.28
2023-04-27T11:28:24.108Z,96309.31
2023-04-27T11:30:58.059Z,96319.66
2023-04-27T11:33:24.992Z,96314.56
2023-04-27T11:35:52.240Z,96308.63
2023-04-27T11:38:19.973Z,96314.72
2023-04-27T11:40:47.913Z,96314.06
2023-04-27T11:43:15.400Z,96315.94
2023-04-27T11:45:46.426Z,96306.72
2023-04-27T11:48:16.799Z,96300.66
2023-04-27T11:50:48.404Z,96311.47
2023-04-27T11:53:16.788Z,96305.00
2023-04-27T11:55:45.784Z,96300.06
2023-04-27T11:58:18.941Z,96299.56
2023-04-27T12:00:47.553Z,96305.84
2023-04-27T12:03:14.638Z,96302.47
2023-04-27T12:05:52.320Z,96300.50
2023-04-27T12:08:19.555Z,96306.38
2023-04-27T12:10:46.935Z,96296.72
2023-04-27T12:13:14.409Z,96302.38
2023-04-27T12:15:42.409Z,96297.75
2023-04-27T12:18:09.805Z,96307.13
2023-04-27T12:20:36.970Z,96308.25
2023-04-27T12:23:03.690Z,96306.72
2023-04-27T12:25:30.523Z,96306.13
2023-04-27T12:27:57.878Z,96309.06
2023-04-27T12:30:24.603Z,96306.66
2023-04-27T12:32:51.446Z,96306.16
2023-04-27T12:35:18.298Z,96310.03
2023-04-27T12:37:45.178Z,96304.72
2023-04-27T12:40:12.522Z,96308.06
2023-04-27T12:42:39.372Z,96301.41
2023-04-27T12:45:06.679Z,96298.88
2023-04-27T12:47:53.826Z,96311.22
2023-04-27T12:50:21.725Z,96308.91
2023-04-27T12:52:48.516Z,96299.88
2023-04-27T12:55:29.016Z,96303.38
2023-04-27T12:57:59.580Z,96308.81
2023-04-27T13:00:26.514Z,96309.09
2023-04-27T13:02:53.819Z,96306.03
2023-04-27T13:05:22.253Z,96297.50
2023-04-27T13:07:49.355Z,96301.97
2023-04-27T13:10:16.244Z,96295.94
2023-04-27T13:12:43.151Z,96299.72
2023-04-27T13:15:10.423Z,96299.69
2023-04-27T13:17:37.423Z,96303.97
2023-04-27T13:20:04.550Z,96298.81
2023-04-27T13:22:31.190Z,96293.69
2023-04-27T13:24:58.151Z,96299.38
2023-04-27T13:27:28.367Z,96306.91
2023-04-27T13:29:55.192Z,96304.25
2023-04-27T13:32:22.567Z,96302.56
2023-04-27T13:34:49.614Z,96298.75
2023-04-27T13:37:16.880Z,96302.16
2023-04-27T13:39:43.564Z,96285.25
2023-04-27T13:42:10.271Z,96287.31
2023-04-27T13:44:37.026Z,96292.09
2023-04-27T13:47:03.906Z,96280.25
2023-04-27T13:49:30.910Z,96285.75
2023-04-27T13:51:58.510Z,96288.44
2023-04-27T13:54:25.426Z,96291.13
2023-04-27T13:56:52.157Z,96289.25
2023-04-27T13:59:18.940Z,96287.25
2023-04-27T14:01:45.902Z,96293.72
2023-04-27T14:04:12.772Z,96287.25
2023-04-27T14:06:39.680Z,96296.09
2023-04-27T14:09:06.321Z,96284.22
2023-04-27T14:11:42.118Z,96281.97
2023-04-27T14:14:12.113Z,96282.06
2023-04-27T14:16:38.849Z,96279.66
2023-04-27T14:19:05.623Z,96277.78
2023-04-27T14:21:32.274Z,96277.91
2023-04-27T14:23:59.032Z,96282.78
2023-04-27T14:26:26.870Z,96278.22
2023-04-27T14:28:57.429Z,96289.50
2023-04-27T14:31:26.637Z,96287.34
2023-04-27T14:33:53.443Z,96289.88
2023-04-27T14:36:20.396Z,96290.63
2023-04-27T14:38:47.560Z,96296.75
2023-04-27T14:41:14.303Z,96290.38
2023-04-27T14:43:41.885Z,96298.19
2023-04-27T14:46:20.244Z,96298.72
2023-04-27T14:48:48.974Z,96300.22
2023-04-27T14:51:16.343Z,96294.22
2023-04-27T14:53:44.017Z,96283.13
2023-04-27T14:56:11.311Z,96301.31
2023-04-27T14:58:37.932Z,96304.59
2023-04-27T15:01:04.752Z,96302.69
2023-04-27T15:03:34.588Z,96302.00
2023-04-27T15:06:02.348Z,96302.81
2023-04-27T15:08:30.739Z,96301.19
2023-04-27T15:11:00.140Z,96301.38
2023-04-27T15:13:28.012Z,96306.16
2023-04-27T15:15:56.260Z,96307.53
2023-04-27T15:18:23.608Z,96305.13
2023-04-27T15:20:57.179Z,96310.72
2023-04-27T15:23:24.724Z,96307.91
2023-04-27T15:25:55.643Z,96302.06
2023-04-27T15:28:22.402Z,96295.97
2023-04-27T15:30:49.505Z,96297.88
2023-04-27T15:33:17.152Z,96298.63
2023-04-27T15:35:44.254Z,96301.41
2023-04-27T15:38:12.742Z,96284.63
2023-04-27T15:40:40.522Z,96277.44
2023-04-27T15:43:07.574Z,96277.72
2023-04-27T15:45:34.239Z,96273.13
2023-04-27T15:48:01.015Z,96286.19
2023-04-27T15:50:27.781Z,96276.31
2023-04-27T15:52:54.720Z,96274.84
2023-04-27T15:55:22.228Z,96267.03
2023-04-27T15:57:49.034Z,96268.44
2023-04-27T16:00:19.333Z,96264.50
2023-04-27T16:02:46.468Z,96268.72
2023-04-27T16:05:14.427Z,96263.50
2023-04-27T16:07:43.241Z,96268.22
2023-04-27T16:10:10.318Z,96264.59
2023-04-27T16:12:37.184Z,96266.22
2023-04-27T16:15:04.722Z,96270.91
2023-04-27T16:17:37.055Z,96274.94
2023-04-27T16:20:06.844Z,96262.81
2023-04-27T16:22:34.640Z,96264.41
2023-04-27T16:25:01.868Z,96259.41
2023-04-27T16:27:28.538Z,96265.34
2023-04-27T16:29:56.320Z,96252.69
2023-04-27T16:32:23.506Z,96260.94
2023-04-27T16:34:50.587Z,96262.72
2023-04-27T16:37:17.282Z,96270.22
2023-04-27T16:39:43.963Z,96271.75
2023-04-27T16:42:10.807Z,96273.22
2023-04-27T16:44:38.128Z,96272.78
2023-04-27T16:47:04.861Z,96287.03
2023-04-27T16:49:31.800Z,96279.81
2023-04-27T16:51:58.462Z,96276.00
2023-04-27T16:54:25.088Z,96282.72
2023-04-27T16:56:53.239Z,96282.00
2023-04-27T16:59:22.033Z,96282.84
2023-04-27T17:01:48.880Z,96289.59
2023-04-27T17:04:15.822Z,96283.66
2023-04-27T17:06:45.332Z,96283.22
2023-04-27T17:09:12.176Z,96280.59
2023-04-27T17:11:38.937Z,96281.28
2023-04-27T17:14:05.889Z,96282.16
2023-04-27T17:16:32.679Z,96287.69
2023-04-27T17:18:59.423Z,96281.28
2023-04-27T17:21:27.493Z,96278.75
2023-04-27T17:23:54.448Z,96279.88
2023-04-27T17:26:21.617Z,96281.81
2023-04-27T17:28:49.387Z,96283.97
2023-04-27T17:31:19.238Z,96285.06
2023-04-27T17:33:46.042Z,96281.88
2023-04-27T17:36:13.005Z,96287.63
2023-04-27T17:38:39.770Z,96288.25
2023-04-27T17:41:06.675Z,96277.53
2023-04-27T17:43:33.452Z,96280.19
2023-04-27T17:46:00.208Z,96275.69
2023-04-27T17:48:26.996Z,96283.78
2023-04-27T17:50:53.731Z,96283.63
2023-04-27T17:53:20.590Z,96281.13
2023-04-27T17:55:47.978Z,96286.38
2023-04-27T17:58:15.814Z,96284.88
2023-04-27T18:00:43.537Z,96289.03
2023-04-27T18:03:11.737Z,96289.47
2023-04-27T18:05:38.685Z,96293.41
2023-04-27T18:08:05.888Z,96295.56
2023-04-27T18:10:32.547Z,96297.81
2023-04-27T18:12:59.356Z,96295.53
2023-04-27T18:15:26.012Z,96280.19
2023-04-27T18:17:52.900Z,96287.66
2023-04-27T18:20:19.601Z,96287.91
2023-04-27T18:22:46.522Z,96295.56
2023-04-27T18:25:13.352Z,96296.41
2023-04-27T18:27:40.083Z,96293.38
2023-04-27T18:30:10.497Z,96293.81
2023-04-27T18:32:37.788Z,96301.13
2023-04-27T18:35:05.658Z,96299.88
2023-04-27T18:37:32.427Z,96307.41
2023-04-27T18:39:59.148Z,96298.06
2023-04-27T18:42:25.880Z,96299.81
2023-04-27T18:44:54.968Z,96307.31
2023-04-27T18:47:21.796Z,96312.03
2023-04-27T18:49:48.620Z,96320.91
2023-04-27T18:52:15.650Z,96323.88
2023-04-27T18:54:42.561Z,96323.69
2023-04-27T18:57:09.423Z,96329.66
2023-04-27T18:59:38.781Z,96325.53
2023-04-27T19:02:07.193Z,96325.97
2023-04-27T19:04:34.261Z,96327.84
2023-04-27T19:07:02.084Z,96326.13
2023-04-27T19:09:29.051Z,96335.38
2023-04-27T19:12:02.866Z,96334.13
2023-04-27T19:14:30.884Z,96334.47
2023-04-27T19:16:57.703Z,96332.41
2023-04-27T19:19:25.104Z,96332.63
2023-04-27T19:21:52.117Z,96326.59
2023-04-27T19:24:18.779Z,96333.19
2023-04-27T19:26:46.769Z,96335.72
2023-04-27T19:29:13.774Z,96332.47
2023-04-27T19:31:41.034Z,96334.63
2023-04-27T19:34:07.923Z,96333.81
2023-04-27T19:36:34.559Z,96334.38
2023-04-27T19:39:01.269Z,96338.25
2023-04-27T19:41:28.351Z,96346.88
2023-04-27T19:43:55.493Z,96343.44
2023-04-27T19:46:22.297Z,96343.31
2023-04-27T19:48:49.082Z,96350.38
2023-04-27T19:51:15.807Z,96342.38
2023-04-27T19:53:42.660Z,96346.63
2023-04-27T19:56:09.359Z,96348.38
2023-04-27T19:58:37.217Z,96342.75
2023-04-27T20:01:04.109Z,96351.78
2023-04-27T20:03:31.060Z,96349.72
2023-04-27T20:05:58.462Z,96348.56
2023-04-27T20:08:25.663Z,96356.63
2023-04-27T20:10:52.384Z,96366.72
2023-04-27T20:13:19.228Z,96362.50
2023-04-27T20:15:46.667Z,96362.72
2023-04-27T20:18:13.468Z,96361.72
2023-04-27T20:20:42.020Z,96368.88
2023-04-27T20:23:08.719Z,96376.75
2023-04-27T20:25:36.578Z,96367.78
2023-04-27T20:28:03.771Z,96369.00
2023-04-27T20:30:30.802Z,96375.81
2023-04-27T20:32:57.520Z,96368.19
2023-04-27T20:35:24.420Z,96373.25
2023-04-27T20:37:52.052Z,96365.09
2023-04-27T20:40:19.149Z,96373.34
2023-04-27T20:42:46.217Z,96367.56
2023-04-27T20:45:13.258Z,96367.56
2023-04-27T20:47:40.396Z,96364.53
2023-04-27T20:50:07.983Z,96366.66
2023-04-27T20:52:35.180Z,96360.53
2023-04-27T20:55:03.613Z,96355.56
2023-04-27T20:57:30.301Z,96359.16
2023-04-27T20:59:57.144Z,96358.13
2023-04-27T21:02:23.874Z,96359.97
2023-04-27T21:04:51.034Z,96358.56
2023-04-27T21:07:17.939Z,96352.88
2023-04-27T21:09:44.934Z,96351.13
2023-04-27T21:12:14.549Z,96354.53
2023-04-27T21:14:41.307Z,96350.69
2023-04-27T21:17:08.279Z,96347.47
2023-04-27T21:19:35.306Z,96336.75
2023-04-27T21:22:02.314Z,96338.69
2023-04-27T21:24:29.175Z,96344.63
2023-04-27T21:26:55.959Z,96343.34
2023-04-27T21:29:22.672Z,96332.28
2023-04-27T21:31:49.379Z,96328.91
2023-04-27T21:34:16.257Z,96337.88
2023-04-27T21:36:43.110Z,96328.59
2023-04-27T21:39:09.763Z,96331.63
2023-04-27T21:41:37.212Z,96328.09
2023-04-27T21:44:04.015Z,96324.88
2023-04-27T21:46:30.774Z,96329.06
2023-04-27T21:48:57.581Z,96328.94
2023-04-27T21:51:24.285Z,96328.47
2023-04-27T21:53:51.040Z,96327.66
2023-04-27T21:56:17.763Z,96323.44
2023-04-27T21:58:44.521Z,96316.72
2023-04-27T22:01:13.038Z,96310.63
2023-04-27T22:03:39.911Z,96308.00
2023-04-27T22:06:07.551Z,96302.72
2023-04-27T22:08:35.063Z,96302.72
2023-04-27T22:11:01.950Z,96305.47
2023-04-27T22:13:28.847Z,96298.72
2023-04-27T22:15:55.821Z,96312.91
2023-04-27T22:18:22.602Z,96302.47
2023-04-27T22:20:49.548Z,96304.09
2023-04-27T22:23:16.650Z,96312.09
2023-04-27T22:25:43.402Z,96310.50
2023-04-27T22:28:11.038Z,96311.25
2023-04-27T22:30:38.061Z,96313.34
2023-04-27T22:33:04.943Z,96311.06
2023-04-27T22:35:32.816Z,96312.03
2023-04-27T22:37:59.896Z,96316.66
2023-04-27T22:40:26.990Z,96313.13
2023-04-27T22:42:55.070Z,96313.59
2023-04-27T22:45:23.013Z,96312.72
2023-04-27T22:47:50.117Z,96302.69
2023-04-27T22:50:17.107Z,96310.22
2023-04-27T22:52:44.152Z,96304.19
2023-04-27T22:55:12.196Z,96307.94
2023-04-27T22:57:39.796Z,96301.28
2023-04-27T23:00:11.456Z,96297.94
2023-04-27T23:02:42.810Z,96296.81
2023-04-27T23:05:11.036Z,96298.44
2023-04-27T23:07:38.425Z,96304.38
2023-04-27T23:10:06.031Z,96302.31
2023-04-27T23:12:33.386Z,96291.34
2023-04-27T23:15:00.130Z,96290.97
2023-04-27T23:17:33.075Z,96296.72
2023-04-27T23:20:01.600Z,96289.19
2023-04-27T23:22:28.766Z,96286.13
2023-04-27T23:24:55.595Z,96288.41
2023-04-27T23:27:23.685Z,96294.69
2023-04-27T23:29:50.708Z,96288.88
2023-04-27T23:32:17.461Z,96288.06
2023-04-27T23:34:44.401Z,96282.97
2023-04-27T23:37:11.193Z,96278.78
2023-04-27T23:39:38.407Z,96282.16
2023-04-27T23:42:05.239Z,96275.78
2023-04-27T23:44:32.072Z,96276.59
2023-04-27T23:46:58.705Z,96270.50
2023-04-27T23:49:25.481Z,96273.06
2023-04-27T23:51:52.760Z,96269.06
2023-04-27T23:54:19.477Z,96269.53
2023-04-27T23:56:46.469Z,96266.00
2023-04-27T23:59:15.022Z,96266.16
